createdAt,value
2017-09-27T00:00:18.132Z,26.15
2017-09-27T00:02:46.530Z,30.83
2017-09-27T00:05:14.906Z,29.12
2017-09-27T00:07:44.111Z,26.25
2017-09-27T00:10:12.500Z,30.35
2017-09-27T00:12:41.640Z,27.98
2017-09-27T00:15:10.175Z,31.50
2017-09-27T00:17:39.329Z,24.12
2017-09-27T00:20:07.719Z,26.52
2017-09-27T00:22:36.149Z,35.65
2017-09-27T00:25:05.299Z,26.45
2017-09-27T00:27:33.699Z,24.60
2017-09-27T00:30:02.118Z,36.90
2017-09-27T00:32:30.510Z,30.15
2017-09-27T00:34:58.892Z,29.70
2017-09-27T00:37:27.308Z,35.90
2017-09-27T00:39:55.680Z,34.75
2017-09-27T00:42:24.077Z,27.70
2017-09-27T00:44:53.278Z,25.35
2017-09-27T00:47:22.425Z,30.33
2017-09-27T00:49:50.808Z,27.30
2017-09-27T00:52:19.263Z,25.30
2017-09-27T00:54:47.664Z,24.63
2017-09-27T00:57:16.115Z,27.40
2017-09-27T00:59:44.540Z,32.00
2017-09-27T01:02:12.936Z,21.85
2017-09-27T01:04:41.323Z,24.65
2017-09-27T01:07:09.742Z,26.98
2017-09-27T01:09:38.130Z,27.62
2017-09-27T01:12:06.524Z,24.65
2017-09-27T01:14:34.979Z,25.15
2017-09-27T01:17:03.361Z,24.87
2017-09-27T01:19:31.760Z,26.95
2017-09-27T01:22:00.188Z,29.25
2017-09-27T01:24:29.360Z,23.40
2017-09-27T01:26:57.763Z,38.53
2017-09-27T01:29:27.064Z,30.12
2017-09-27T01:31:56.219Z,26.77
2017-09-27T01:34:24.645Z,29.92
2017-09-27T01:36:53.833Z,26.87
2017-09-27T01:39:23.009Z,23.83
2017-09-27T01:41:51.596Z,27.05
2017-09-27T01:44:20.028Z,32.47
2017-09-27T01:46:48.438Z,28.65
2017-09-27T01:49:16.833Z,22.05
2017-09-27T01:51:45.268Z,25.98
2017-09-27T01:54:13.663Z,22.62
2017-09-27T01:56:42.147Z,23.98
2017-09-27T01:59:10.587Z,24.95
2017-09-27T02:01:39.000Z,25.58
2017-09-27T02:04:07.857Z,30.25
2017-09-27T02:06:36.270Z,29.63
2017-09-27T02:09:04.696Z,29.27
2017-09-27T02:11:33.834Z,32.38
2017-09-27T02:14:02.256Z,35.88
2017-09-27T02:16:30.654Z,29.12
2017-09-27T02:18:59.796Z,33.55
2017-09-27T02:21:28.234Z,26.80
2017-09-27T02:23:57.369Z,35.50
2017-09-27T02:26:25.747Z,34.85
2017-09-27T02:28:54.155Z,28.73
2017-09-27T02:31:22.547Z,34.22
2017-09-27T02:33:50.929Z,28.42
2017-09-27T02:36:19.385Z,29.60
2017-09-27T02:38:47.767Z,23.23
2017-09-27T02:41:16.223Z,25.73
2017-09-27T02:43:44.631Z,27.60
2017-09-27T02:46:13.003Z,29.20
2017-09-27T02:48:41.384Z,25.52
2017-09-27T02:51:09.804Z,24.08
2017-09-27T02:53:38.185Z,25.75
2017-09-27T02:56:06.562Z,27.62
2017-09-27T02:58:35.003Z,25.35
2017-09-27T03:01:03.380Z,29.67
2017-09-27T03:03:31.768Z,24.73
2017-09-27T03:06:00.191Z,28.48
2017-09-27T03:08:28.569Z,25.73
2017-09-27T03:10:56.964Z,26.95
2017-09-27T03:13:25.384Z,28.25
2017-09-27T03:15:53.765Z,25.20
2017-09-27T03:18:22.932Z,27.27
2017-09-27T03:20:51.361Z,25.40
2017-09-27T03:23:20.882Z,26.30
2017-09-27T03:25:49.607Z,37.13
2017-09-27T03:28:18.431Z,24.70
2017-09-27T03:30:48.036Z,28.30
2017-09-27T03:33:17.647Z,27.40
2017-09-27T03:35:47.241Z,28.20
2017-09-27T03:38:16.760Z,23.75
2017-09-27T03:40:46.335Z,28.80
2017-09-27T03:43:15.110Z,21.67
2017-09-27T03:45:43.699Z,25.42
2017-09-27T03:48:12.078Z,25.27
2017-09-27T03:50:40.488Z,25.00
2017-09-27T03:53:09.663Z,24.58
2017-09-27T03:55:38.055Z,30.58
2017-09-27T03:58:06.474Z,27.13
2017-09-27T04:00:34.856Z,21.58
2017-09-27T04:03:03.235Z,27.02
2017-09-27T04:05:31.671Z,30.08
2017-09-27T04:08:00.060Z,34.35
2017-09-27T04:10:29.215Z,32.42
2017-09-27T04:12:57.634Z,27.73
2017-09-27T04:15:26.792Z,25.50
2017-09-27T04:17:55.187Z,25.62
2017-09-27T04:20:23.603Z,55.63
2017-09-27T04:22:52.764Z,27.90
2017-09-27T04:25:21.155Z,23.92
2017-09-27T04:27:49.584Z,25.95
2017-09-27T04:30:17.971Z,23.50
2017-09-27T04:32:46.375Z,21.83
2017-09-27T04:35:14.787Z,23.60
2017-09-27T04:37:43.931Z,41.08
2017-09-27T04:40:12.342Z,27.42
2017-09-27T04:42:40.760Z,26.02
2017-09-27T04:45:09.135Z,27.98
2017-09-27T04:47:37.515Z,30.45
2017-09-27T04:50:05.947Z,26.70
2017-09-27T04:52:34.322Z,30.30
2017-09-27T04:55:02.701Z,42.10
2017-09-27T04:57:31.115Z,31.65
2017-09-27T05:00:00.261Z,35.65
2017-09-27T05:02:28.659Z,40.85
2017-09-27T05:04:57.083Z,29.77
2017-09-27T05:07:25.464Z,27.75
2017-09-27T05:09:53.838Z,32.40
2017-09-27T05:12:22.355Z,34.45
2017-09-27T05:14:50.737Z,34.05
2017-09-27T05:17:19.119Z,31.77
2017-09-27T05:19:47.542Z,28.85
2017-09-27T05:22:16.696Z,26.55
2017-09-27T05:24:45.072Z,28.67
2017-09-27T05:27:13.491Z,29.20
2017-09-27T05:29:42.653Z,31.80
2017-09-27T05:32:11.031Z,27.15
2017-09-27T05:34:39.456Z,31.80
2017-09-27T05:37:08.618Z,33.75
2017-09-27T05:39:37.010Z,38.25
2017-09-27T05:42:05.417Z,31.77
2017-09-27T05:44:33.811Z,31.15
2017-09-27T05:47:02.188Z,34.47
2017-09-27T05:49:30.634Z,59.08
2017-09-27T05:51:59.788Z,44.72
2017-09-27T05:54:28.175Z,45.95
2017-09-27T05:56:56.703Z,35.42
2017-09-27T05:59:25.858Z,42.72
2017-09-27T06:01:54.254Z,28.00
2017-09-27T06:04:22.668Z,27.65
2017-09-27T06:06:51.055Z,44.30
2017-09-27T06:09:19.442Z,27.13
2017-09-27T06:11:47.871Z,32.42
2017-09-27T06:14:16.251Z,38.65
2017-09-27T06:16:44.704Z,27.98
2017-09-27T06:19:13.147Z,27.00
2017-09-27T06:21:41.518Z,28.67
2017-09-27T06:24:09.903Z,31.05
2017-09-27T06:26:38.311Z,36.25
2017-09-27T06:29:06.711Z,33.22
2017-09-27T06:31:35.101Z,26.27
2017-09-27T06:34:03.520Z,41.17
2017-09-27T06:36:31.896Z,36.10
2017-09-27T06:39:00.277Z,56.20
2017-09-27T06:41:28.735Z,34.97
2017-09-27T06:43:57.892Z,38.30
2017-09-27T06:46:26.283Z,32.25
2017-09-27T06:48:54.698Z,22.73
2017-09-27T06:51:23.090Z,35.75
2017-09-27T06:53:51.474Z,24.12
2017-09-27T06:56:19.950Z,26.40
2017-09-27T06:58:48.355Z,33.78
2017-09-27T07:01:16.750Z,34.65
2017-09-27T07:03:45.324Z,21.85
2017-09-27T07:06:13.712Z,28.98
2017-09-27T07:08:42.099Z,31.35
2017-09-27T07:11:11.287Z,33.95
2017-09-27T07:13:39.680Z,28.60
2017-09-27T07:16:08.078Z,30.00
2017-09-27T07:18:37.250Z,32.78
2017-09-27T07:21:05.633Z,34.30
2017-09-27T07:23:35.538Z,25.25
2017-09-27T07:26:04.203Z,46.58
2017-09-27T07:28:32.604Z,31.08
2017-09-27T07:31:00.998Z,34.33
2017-09-27T07:33:29.424Z,26.37
2017-09-27T07:35:57.808Z,40.03
2017-09-27T07:38:26.205Z,30.37
2017-09-27T07:40:54.643Z,29.63
2017-09-27T07:43:23.043Z,35.67
2017-09-27T07:45:51.426Z,38.20
2017-09-27T07:48:19.869Z,44.97
2017-09-27T07:50:49.040Z,47.60
2017-09-27T07:53:17.453Z,41.85
2017-09-27T07:55:45.888Z,40.45
2017-09-27T07:58:14.284Z,44.67
2017-09-27T08:00:42.719Z,41.90
2017-09-27T08:03:11.151Z,42.38
2017-09-27T08:05:40.312Z,53.30
2017-09-27T08:08:08.702Z,45.25
2017-09-27T08:10:37.171Z,37.47
2017-09-27T08:13:05.555Z,31.17
2017-09-27T08:15:33.952Z,31.33
2017-09-27T08:18:02.401Z,29.13
2017-09-27T08:20:30.819Z,26.93
2017-09-27T08:22:59.992Z,22.10
2017-09-27T08:25:28.433Z,26.53
2017-09-27T08:27:56.827Z,26.63
2017-09-27T08:30:25.214Z,24.27
2017-09-27T08:32:53.676Z,26.07
2017-09-27T08:35:22.083Z,30.73
2017-09-27T08:37:50.488Z,24.50
2017-09-27T08:40:18.920Z,25.57
2017-09-27T08:42:47.424Z,23.03
2017-09-27T08:45:15.891Z,25.30
2017-09-27T08:47:45.300Z,24.87
2017-09-27T08:50:13.698Z,40.77
2017-09-27T08:52:42.100Z,24.23
2017-09-27T08:55:11.321Z,20.30
2017-09-27T08:57:39.713Z,21.60
2017-09-27T09:00:08.098Z,18.93
2017-09-27T09:02:36.539Z,22.70
2017-09-27T09:05:05.682Z,26.83
2017-09-27T09:07:34.149Z,28.90
2017-09-27T09:10:02.588Z,25.17
2017-09-27T09:12:31.739Z,21.80
2017-09-27T09:15:00.126Z,23.93
2017-09-27T09:17:28.591Z,28.43
2017-09-27T09:19:56.976Z,28.93
2017-09-27T09:22:25.457Z,34.17
2017-09-27T09:24:54.055Z,37.03
2017-09-27T09:27:22.468Z,23.50
2017-09-27T09:29:50.915Z,29.93
2017-09-27T09:32:19.382Z,26.53
2017-09-27T09:34:47.809Z,24.90
2017-09-27T09:37:16.970Z,27.60
2017-09-27T09:39:45.671Z,31.00
2017-09-27T09:42:14.104Z,31.13
2017-09-27T09:44:45.971Z,33.13
2017-09-27T09:47:14.412Z,28.53
2017-09-27T09:49:43.580Z,28.53
2017-09-27T09:52:11.978Z,29.77
2017-09-27T09:54:40.409Z,24.33
2017-09-27T09:57:09.102Z,33.73
2017-09-27T09:59:37.595Z,31.30
2017-09-27T10:02:06.579Z,29.80
2017-09-27T10:04:35.550Z,26.60
2017-09-27T10:07:03.955Z,23.67
2017-09-27T10:09:32.513Z,21.40
2017-09-27T10:12:00.899Z,24.57
2017-09-27T10:14:29.281Z,21.63
2017-09-27T10:16:57.754Z,18.10
2017-09-27T10:19:26.140Z,21.23
2017-09-27T10:21:54.520Z,20.07
2017-09-27T10:24:23.211Z,16.60
2017-09-27T10:26:51.608Z,21.50
2017-09-27T10:29:19.997Z,21.20
2017-09-27T10:31:49.123Z,17.90
2017-09-27T10:34:17.507Z,13.67
2017-09-27T10:36:45.887Z,16.50
2017-09-27T10:39:14.504Z,15.57
2017-09-27T10:41:43.394Z,12.53
2017-09-27T10:44:11.976Z,9.93
2017-09-27T10:46:40.426Z,11.73
2017-09-27T10:49:08.806Z,15.63
2017-09-27T10:51:37.691Z,11.20
2017-09-27T10:54:07.528Z,11.33
2017-09-27T10:56:36.452Z,14.80
2017-09-27T10:59:04.911Z,13.53
2017-09-27T11:01:33.468Z,12.80
2017-09-27T11:04:02.347Z,15.33
2017-09-27T11:06:30.735Z,16.00
2017-09-27T11:11:34.597Z,25.27
2017-09-27T11:14:03.012Z,26.93
2017-09-27T11:16:32.205Z,26.07
2017-09-27T11:19:01.354Z,30.40
2017-09-27T11:21:29.816Z,26.47
2017-09-27T11:23:58.268Z,29.80
2017-09-27T11:26:26.656Z,22.47
2017-09-27T11:28:55.086Z,24.47
2017-09-27T11:31:23.476Z,29.90
2017-09-27T11:33:51.861Z,34.93
2017-09-27T11:36:21.043Z,26.00
2017-09-27T11:38:49.433Z,29.83
2017-09-27T11:41:17.826Z,24.43
2017-09-27T11:43:47.028Z,30.50
2017-09-27T11:46:16.196Z,22.20
2017-09-27T11:48:44.603Z,25.53
2017-09-27T11:51:13.785Z,22.30
2017-09-27T11:53:42.427Z,19.87
2017-09-27T11:56:10.827Z,23.43
2017-09-27T11:58:39.252Z,29.50
2017-09-27T12:01:08.417Z,20.23
2017-09-27T12:03:36.813Z,20.63
2017-09-27T12:06:06.001Z,19.37
2017-09-27T12:08:35.178Z,26.13
2017-09-27T12:11:03.563Z,23.43
2017-09-27T12:13:52.493Z,18.40
2017-09-27T12:16:21.727Z,16.70
2017-09-27T12:18:50.144Z,15.73
2017-09-27T12:21:19.291Z,20.80
2017-09-27T12:23:47.707Z,23.30
2017-09-27T12:26:16.897Z,18.87
2017-09-27T12:28:46.068Z,17.70
2017-09-27T12:31:14.457Z,15.83
2017-09-27T12:33:42.987Z,16.20
2017-09-27T12:36:11.378Z,18.83
2017-09-27T12:38:39.763Z,19.50
2017-09-27T12:41:08.250Z,19.63
2017-09-27T12:43:36.720Z,18.53
2017-09-27T12:46:05.100Z,19.53
2017-09-27T12:48:33.543Z,17.97
2017-09-27T12:51:02.692Z,16.57
2017-09-27T12:53:31.092Z,21.57
2017-09-27T12:55:59.547Z,16.77
2017-09-27T12:58:27.939Z,18.10
2017-09-27T13:00:56.332Z,27.87
2017-09-27T13:03:26.008Z,16.63
2017-09-27T13:05:54.424Z,20.90
2017-09-27T13:08:22.924Z,19.60
2017-09-27T13:10:51.388Z,19.83
2017-09-27T13:13:19.771Z,17.57
2017-09-27T13:15:48.919Z,22.80
2017-09-27T13:18:17.342Z,16.50
2017-09-27T13:20:45.728Z,20.43
2017-09-27T13:23:14.879Z,17.40
2017-09-27T13:25:43.291Z,14.37
2017-09-27T13:28:11.677Z,17.30
2017-09-27T13:30:40.849Z,16.07
2017-09-27T13:33:09.266Z,17.63
2017-09-27T13:35:37.682Z,20.37
2017-09-27T13:38:06.075Z,13.10
2017-09-27T13:40:34.498Z,16.77
2017-09-27T13:43:03.656Z,11.47
2017-09-27T13:45:32.053Z,10.70
2017-09-27T13:48:00.466Z,12.47
2017-09-27T13:50:28.884Z,15.70
2017-09-27T13:52:57.961Z,15.73
2017-09-27T13:55:26.458Z,18.27
2017-09-27T13:57:54.883Z,21.90
2017-09-27T14:00:24.039Z,20.43
2017-09-27T14:02:52.458Z,15.00
2017-09-27T14:05:21.615Z,16.60
2017-09-27T14:07:50.010Z,23.47
2017-09-27T14:10:18.443Z,15.63
2017-09-27T14:12:46.841Z,18.57
2017-09-27T14:15:15.235Z,11.43
2017-09-27T14:17:43.659Z,14.13
2017-09-27T14:20:13.303Z,10.07
2017-09-27T14:22:41.717Z,11.00
2017-09-27T14:25:10.169Z,15.63
2017-09-27T14:27:38.567Z,31.37
2017-09-27T14:30:07.030Z,12.63
2017-09-27T14:32:35.577Z,14.33
2017-09-27T14:35:03.963Z,14.53
2017-09-27T14:37:32.370Z,15.73
2017-09-27T14:40:00.802Z,11.73
2017-09-27T14:42:29.964Z,23.63
2017-09-27T14:44:58.420Z,20.97
2017-09-27T14:47:26.871Z,23.10
2017-09-27T14:49:55.359Z,36.00
2017-09-27T14:52:23.808Z,22.50
2017-09-27T14:54:53.180Z,20.63
2017-09-27T14:57:21.590Z,19.67
2017-09-27T14:59:50.744Z,20.77
2017-09-27T15:02:19.313Z,25.50
2017-09-27T15:04:47.741Z,22.00
2017-09-27T15:07:16.893Z,20.90
2017-09-27T15:09:46.756Z,15.77
2017-09-27T15:12:16.137Z,25.33
2017-09-27T15:14:44.764Z,19.33
2017-09-27T15:17:13.187Z,23.97
2017-09-27T15:19:41.636Z,26.63
2017-09-27T15:22:10.032Z,28.83
2017-09-27T15:24:38.454Z,27.73
2017-09-27T15:27:06.834Z,34.63
2017-09-27T15:29:35.257Z,30.03
2017-09-27T15:32:03.969Z,21.50
2017-09-27T15:34:32.376Z,37.30
2017-09-27T15:37:00.782Z,28.90
2017-09-27T15:39:29.509Z,36.57
2017-09-27T15:41:57.910Z,31.43
2017-09-27T15:44:26.298Z,33.00
2017-09-27T15:46:54.722Z,35.03
2017-09-27T15:49:23.154Z,31.07
2017-09-27T15:51:51.546Z,28.93
2017-09-27T15:54:20.652Z,23.67
2017-09-27T15:56:49.861Z,28.00
2017-09-27T15:59:18.462Z,28.50
2017-09-27T16:01:47.313Z,26.90
2017-09-27T16:04:16.524Z,32.50
2017-09-27T16:06:45.112Z,20.83
2017-09-27T16:09:13.782Z,24.97
2017-09-27T16:11:42.960Z,26.73
2017-09-27T16:14:11.360Z,27.37
2017-09-27T16:16:40.035Z,29.43
2017-09-27T16:19:09.298Z,22.50
2017-09-27T16:21:39.540Z,23.07
2017-09-27T16:24:08.093Z,24.10
2017-09-27T16:26:36.484Z,23.27
2017-09-27T16:29:04.907Z,31.53
2017-09-27T16:31:34.129Z,28.80
2017-09-27T16:34:02.525Z,34.67
2017-09-27T16:36:31.017Z,37.87
2017-09-27T16:39:00.254Z,32.22
2017-09-27T16:41:30.649Z,37.88
2017-09-27T16:43:59.870Z,45.40
2017-09-27T16:46:28.828Z,36.03
2017-09-27T16:48:57.707Z,43.17
2017-09-27T16:51:26.638Z,41.95
2017-09-27T16:53:55.269Z,42.53
2017-09-27T16:56:23.797Z,52.42
2017-09-27T16:58:52.333Z,44.28
2017-09-27T17:01:20.766Z,51.95
2017-09-27T17:03:49.206Z,46.83
2017-09-27T17:06:17.610Z,38.78
2017-09-27T17:08:46.065Z,42.55
2017-09-27T17:11:14.672Z,46.97
2017-09-27T17:13:43.063Z,43.90
2017-09-27T17:16:11.568Z,45.55
2017-09-27T17:18:40.727Z,44.20
2017-09-27T17:21:09.130Z,49.55
2017-09-27T17:23:38.356Z,47.03
2017-09-27T17:26:06.765Z,43.05
2017-09-27T17:28:35.155Z,50.78
2017-09-27T17:31:03.690Z,44.80
2017-09-27T17:33:32.298Z,50.15
2017-09-27T17:36:00.923Z,56.03
2017-09-27T17:38:30.518Z,49.53
2017-09-27T17:40:58.931Z,60.28
2017-09-27T17:43:27.423Z,50.28
2017-09-27T17:45:56.368Z,45.25
2017-09-27T17:48:24.837Z,52.85
2017-09-27T17:50:54.447Z,44.90
2017-09-27T17:53:23.055Z,49.42
2017-09-27T17:55:51.543Z,49.72
2017-09-27T17:58:20.044Z,47.08
2017-09-27T18:00:49.248Z,59.10
2017-09-27T18:03:17.677Z,56.20
2017-09-27T18:05:51.673Z,45.30
2017-09-27T18:11:28.162Z,49.58
2017-09-27T18:17:09.379Z,49.25
2017-09-27T18:19:38.310Z,47.30
2017-09-27T18:22:07.501Z,48.53
2017-09-27T18:24:36.026Z,53.92
2017-09-27T18:27:04.966Z,43.85
2017-09-27T18:29:33.415Z,48.15
2017-09-27T18:32:01.847Z,43.55
2017-09-27T18:34:30.611Z,53.17
2017-09-27T18:36:59.776Z,52.85
2017-09-27T18:39:29.043Z,55.55
2017-09-27T18:41:57.812Z,53.35
2017-09-27T18:44:26.642Z,55.33
2017-09-27T18:46:56.151Z,44.92
2017-09-27T18:49:25.151Z,47.25
2017-09-27T18:51:54.111Z,51.67
2017-09-27T18:54:24.725Z,51.50
2017-09-27T18:56:53.964Z,53.83
2017-09-27T18:59:22.934Z,49.97
2017-09-27T19:01:51.989Z,61.50
2017-09-27T19:04:20.658Z,49.28
2017-09-27T19:06:50.313Z,52.35
2017-09-27T19:09:19.369Z,88.90
2017-09-27T19:11:49.973Z,93.82
2017-09-27T19:14:19.485Z,63.05
2017-09-27T19:16:48.979Z,62.70
2017-09-27T19:19:17.510Z,57.70
2017-09-27T19:21:46.172Z,62.95
2017-09-27T19:24:14.622Z,59.25
2017-09-27T19:26:47.727Z,55.80
2017-09-27T19:29:19.076Z,52.60
2017-09-27T19:31:51.876Z,52.95
2017-09-27T19:34:23.795Z,48.08
2017-09-27T19:36:56.157Z,60.78
2017-09-27T19:39:27.642Z,51.17
2017-09-27T19:41:56.522Z,54.85
2017-09-27T19:44:36.131Z,56.25
2017-09-27T19:47:06.384Z,56.85
2017-09-27T19:49:34.858Z,51.40
2017-09-27T19:52:03.844Z,52.40
2017-09-27T19:54:33.969Z,64.75
2017-09-27T19:57:03.752Z,48.30
2017-09-27T19:59:32.978Z,60.28
2017-09-27T20:02:03.773Z,47.75
2017-09-27T20:04:33.933Z,54.97
2017-09-27T20:07:03.748Z,57.50
2017-09-27T20:09:32.965Z,48.60
2017-09-27T20:12:02.003Z,48.28
2017-09-27T20:14:30.873Z,49.15
2017-09-27T20:16:59.911Z,61.90
2017-09-27T20:19:28.336Z,63.80
2017-09-27T20:22:00.811Z,58.40
2017-09-27T20:24:32.643Z,70.55
2017-09-27T20:27:03.001Z,51.65
2017-09-27T20:29:34.268Z,45.70
2017-09-27T20:32:03.504Z,58.53
2017-09-27T20:34:32.746Z,58.55
2017-09-27T20:37:02.408Z,54.40
2017-09-27T20:39:31.509Z,58.25
2017-09-27T20:42:03.630Z,54.40
2017-09-27T20:44:32.156Z,52.17
2017-09-27T20:47:00.757Z,52.78
2017-09-27T20:49:29.144Z,66.37
2017-09-27T20:51:58.030Z,55.58
2017-09-27T20:54:27.478Z,52.62
2017-09-27T20:56:55.960Z,55.55
2017-09-27T20:59:25.378Z,52.00
2017-09-27T21:01:53.775Z,50.42
2017-09-27T21:04:22.183Z,49.80
2017-09-27T21:06:50.568Z,58.20
2017-09-27T21:09:20.031Z,54.75
2017-09-27T21:11:48.419Z,47.20
2017-09-27T21:14:16.818Z,50.55
2017-09-27T21:16:45.228Z,61.42
2017-09-27T21:19:13.607Z,52.08
2017-09-27T21:21:42.067Z,70.50
2017-09-27T21:24:11.227Z,56.47
2017-09-27T21:26:40.072Z,74.85
2017-09-27T21:29:08.933Z,70.95
2017-09-27T21:31:37.317Z,56.25
2017-09-27T21:34:06.100Z,72.93
2017-09-27T21:36:34.486Z,75.70
2017-09-27T21:39:03.700Z,84.93
2017-09-27T21:41:32.885Z,111.47
2017-09-27T21:44:02.046Z,99.75
2017-09-27T21:46:31.081Z,98.90
2017-09-27T21:48:59.667Z,87.03
2017-09-27T21:51:28.835Z,88.32
2017-09-27T21:53:57.843Z,85.82
2017-09-27T21:56:26.987Z,84.40
2017-09-27T21:58:55.431Z,70.25
2017-09-27T22:01:24.621Z,62.50
2017-09-27T22:03:53.009Z,62.35
2017-09-27T22:06:21.458Z,51.65
2017-09-27T22:08:50.364Z,51.45
2017-09-27T22:11:19.486Z,52.13
2017-09-27T22:13:47.961Z,45.75
2017-09-27T22:16:16.352Z,46.88
2017-09-27T22:18:44.755Z,51.80
2017-09-27T22:21:13.136Z,48.90
2017-09-27T22:23:41.564Z,51.58
2017-09-27T22:26:11.179Z,51.58
2017-09-27T22:28:40.865Z,45.80
2017-09-27T22:31:09.288Z,45.72
2017-09-27T22:33:37.737Z,48.50
2017-09-27T22:36:07.195Z,49.85
2017-09-27T22:38:35.856Z,44.58
2017-09-27T22:41:04.240Z,49.95
2017-09-27T22:43:32.659Z,41.90
2017-09-27T22:46:01.043Z,46.17
2017-09-27T22:48:29.483Z,50.45
2017-09-27T22:50:57.983Z,57.62
2017-09-27T22:53:26.364Z,56.58
2017-09-27T22:55:54.874Z,47.40
2017-09-27T22:58:23.265Z,58.47
2017-09-27T23:00:51.980Z,40.35
2017-09-27T23:03:20.386Z,42.55
2017-09-27T23:05:48.764Z,48.17
2017-09-27T23:08:17.178Z,48.85
2017-09-27T23:10:45.855Z,56.78
2017-09-27T23:13:14.615Z,43.03
2017-09-27T23:15:43.198Z,36.15
2017-09-27T23:18:11.690Z,41.25
2017-09-27T23:20:40.992Z,35.60
2017-09-27T23:23:09.374Z,38.90
2017-09-27T23:25:37.815Z,41.90
2017-09-27T23:28:06.203Z,37.55
2017-09-27T23:30:34.655Z,35.55
2017-09-27T23:33:03.085Z,44.05
2017-09-27T23:35:31.484Z,56.20
2017-09-27T23:38:00.391Z,64.15
2017-09-27T23:40:29.545Z,37.92
2017-09-27T23:42:57.930Z,32.60
2017-09-27T23:45:26.464Z,34.45
2017-09-27T23:47:54.855Z,36.65
2017-09-27T23:50:23.314Z,36.05
2017-09-27T23:52:52.465Z,52.53
2017-09-27T23:55:20.852Z,42.13
2017-09-27T23:57:49.483Z,41.70
